Boyntonville, New York
Current Conditions -  °F | °C
As of 6:36 PM on Wednesday 22 Oct 2014 (Local Time) from KDDH Reporting Station
Overcast Overcast  
Wind Chill: 46°   Ceiling: 3200
Heat Index: 49°   Visibility: 10mi
Dew Point: 45°   Wind: 7mph
Humidity: 86%   Direction: 350°N
Pressure: 29.98"   Gusts: 17mph
Location:  42.8782°N, 73.3625°W
Report Text: KDDH 222236Z AUTO 35006G15KT 10SM FEW013 OVC032 09/07 A2998 RMK AO2 T00940072
Loading
Personal Weather Stations






























Interactive Weather Map New forecast layout! Learn more

10-Day Weather Forecast

Advertisements
Track Severe Weather on mobile